University Heights, Iowa
Current Conditions -  °F | °C
As of 4:52 PM on Sunday 21 Dec 2014 (Local Time) from KIOW Reporting Station
Overcast Overcast  
Wind Chill: 34°   Ceiling: 3500
Heat Index: 41°   Visibility: 10mi
Dew Point: 35°   Wind: 13mph
Humidity: 79%   Direction: 140°SE
Pressure: 29.92"   Gusts: NA
Location:  41.5918°N, 91.6264°W
Report Text: KIOW 212252Z AUTO 14011KT 10SM FEW020 FEW029 OVC035 05/02 A2992 RMK AO2 SLP139 T00500017
Loading
Personal Weather Stations






























Interactive Weather Map New forecast layout! Learn more

10-Day Weather Forecast

Advertisements
Track Severe Weather on mobile